Time;durP1;ratioP1;P1;durP2;ratioP2;P2;SDS_P1;SDS_P2;PMS_P1;PMS_P2;Temp;Humidity;BMP_temperature;BMP_pressure;BME280_temperature;BME280_humidity;BME280_pressure;Samples;Min_cycle;Max_cycle;Signal;HPM_P1;HPM_P2
2022/07/30 00:01:16;;;;;;;21.83;19.95;;;;;;;24.82;100.00;-18409.78;5077774;28;20266;-63
2022/07/30 00:03:43;;;;;;;19.88;18.45;;;;;;;24.84;100.00;-18410.25;5078011;28;20272;-63
2022/07/30 00:06:11;;;;;;;22.88;20.73;;;;;;;24.74;100.00;-18407.88;5077788;28;20188;-64
2022/07/30 00:08:38;;;;;;;22.52;20.40;;;;;;;24.72;100.00;-18407.41;5077922;28;20670;-63
2022/07/30 00:11:05;;;;;;;23.98;21.83;;;;;;;24.68;100.00;-18406.47;5077727;28;20176;-63
2022/07/30 00:13:32;;;;;;;22.98;20.90;;;;;;;24.65;100.00;-18405.63;5077552;28;20293;-63
2022/07/30 00:15:59;;;;;;;22.92;21.02;;;;;;;24.47;100.00;-18401.47;5077969;28;20601;-63
2022/07/30 00:18:26;;;;;;;24.65;22.52;;;;;;;24.56;100.00;-18403.63;5077671;28;20228;-64
2022/07/30 00:20:53;;;;;;;23.83;21.70;;;;;;;24.58;100.00;-18404.09;5077535;28;20262;-62
2022/07/30 00:23:23;;;;;;;23.45;20.98;;;;;;;24.50;100.00;-18402.31;5077678;28;20181;-64
2022/07/30 00:25:50;;;;;;;23.10;20.92;;;;;;;24.67;100.00;-18406.22;5076275;28;20253;-63
2022/07/30 00:28:17;;;;;;;22.50;20.58;;;;;;;24.72;100.00;-18407.41;5077934;28;20197;-62
2022/07/30 00:30:44;;;;;;;22.65;20.80;;;;;;;24.41;100.00;-18400.06;5077462;28;20185;-62
2022/07/30 00:33:11;;;;;;;23.38;21.42;;;;;;;24.65;100.00;-18405.75;5077813;28;20184;-63
2022/07/30 00:35:39;;;;;;;22.85;20.92;;;;;;;24.58;100.00;-18404.09;5077559;28;20220;-63
2022/07/30 00:38:06;;;;;;;21.70;20.00;;;;;;;24.62;100.00;-18405.03;5077821;28;20690;-63
2022/07/30 00:40:35;;;;;;;23.20;20.90;;;;;;;24.57;100.00;-18403.97;5077333;28;20205;-63
2022/07/30 00:43:02;;;;;;;23.63;21.50;;;;;;;24.19;100.00;-18394.84;5077398;28;20196;-62
2022/07/30 00:45:29;;;;;;;24.00;21.65;;;;;;;24.59;100.00;-18404.31;5075466;28;20262;-62
2022/07/30 00:47:57;;;;;;;23.17;21.27;;;;;;;24.68;100.00;-18406.47;5074251;28;20195;-64
2022/07/30 00:50:24;;;;;;;22.90;21.08;;;;;;;24.67;100.00;-18406.09;5074430;28;20655;-63
2022/07/30 00:52:51;;;;;;;23.42;21.15;;;;;;;24.67;100.00;-18406.09;5074321;28;20647;-64
2022/07/30 00:55:18;;;;;;;21.30;19.58;;;;;;;24.71;100.00;-18407.16;5074067;28;20246;-63
2022/07/30 00:57:47;;;;;;;20.77;18.90;;;;;;;24.66;100.00;-18405.97;5074010;28;20188;-62
2022/07/30 01:00:16;;;;;;;22.33;20.50;;;;;;;24.54;100.00;-18403.13;5073893;28;20208;-63
2022/07/30 01:02:44;;;;;;;23.48;21.02;;;;;;;24.35;100.00;-18398.66;5074222;28;20181;-63
2022/07/30 01:05:11;;;;;;;22.35;20.08;;;;;;;24.41;100.00;-18400.06;5073987;28;20181;-63
2022/07/30 01:07:38;;;;;;;23.02;21.05;;;;;;;24.37;100.00;-18399.13;5073915;28;20189;-63
2022/07/30 01:10:07;;;;;;;21.70;20.15;;;;;;;24.41;100.00;-18400.06;5074048;28;20177;-63
2022/07/30 01:12:34;;;;;;;21.92;20.15;;;;;;;24.41;100.00;-18400.19;5073611;28;20228;-63
2022/07/30 01:15:05;;;;;;;22.50;20.30;;;;;;;24.33;100.00;-18398.16;5073787;28;20276;-63
2022/07/30 01:17:32;;;;;;;22.08;20.25;;;;;;;24.30;100.00;-18397.56;5074043;28;20220;-63
2022/07/30 01:20:05;;;;;;;21.95;20.30;;;;;;;24.15;100.00;-18394.03;5073798;28;20702;-63
2022/07/30 01:22:45;;;;;;;21.20;19.73;;;;;;;24.32;100.00;-18397.94;5073891;28;20705;-63
2022/07/30 01:25:25;;;;;;;19.45;18.00;;;;;;;24.19;100.00;-18394.84;5073450;28;20226;-62
2022/07/30 01:27:58;;;;;;;18.42;17.23;;;;;;;24.06;100.00;-18392.00;5073721;28;20238;-63
2022/07/30 01:30:28;;;;;;;18.50;17.42;;;;;;;24.01;100.00;-18390.69;5073420;28;20246;-63
2022/07/30 01:32:58;;;;;;;19.55;18.15;;;;;;;23.87;100.00;-18387.50;5073756;28;20694;-63
2022/07/30 01:35:27;;;;;;;20.33;18.77;;;;;;;23.96;100.00;-18389.63;5073627;28;20701;-64
2022/07/30 01:37:56;;;;;;;20.50;18.90;;;;;;;23.86;100.00;-18387.25;5073271;28;20216;-63
2022/07/30 01:40:25;;;;;;;21.35;19.98;;;;;;;23.93;100.00;-18388.81;5073372;28;20699;-64
2022/07/30 01:42:57;;;;;;;21.58;19.85;;;;;;;23.85;100.00;-18387.03;5073381;28;20200;-63
2022/07/30 01:45:24;;;;;;;21.05;19.45;;;;;;;23.74;100.00;-18384.41;5073170;28;20246;-63
2022/07/30 01:47:53;;;;;;;21.83;19.73;;;;;;;23.74;100.00;-18384.41;5073066;28;20261;-63
2022/07/30 01:50:21;;;;;;;21.33;19.70;;;;;;;23.73;100.00;-18384.19;5073011;28;20184;-62
2022/07/30 01:52:52;;;;;;;22.85;20.80;;;;;;;23.85;100.00;-18386.91;5072937;28;20185;-63
2022/07/30 01:55:25;;;;;;;21.63;20.02;;;;;;;23.95;100.00;-18389.41;5073302;28;20555;-63
2022/07/30 01:57:55;;;;;;;22.42;20.45;;;;;;;23.97;100.00;-18389.88;5072489;28;20199;-62
2022/07/30 02:00:24;;;;;;;21.92;20.05;;;;;;;23.98;100.00;-18389.97;5072759;28;20201;-63
2022/07/30 02:02:51;;;;;;;21.67;20.05;;;;;;;24.06;100.00;-18392.00;5072929;28;20677;-63
2022/07/30 02:05:18;;;;;;;21.70;19.88;;;;;;;24.09;100.00;-18392.72;5072890;28;20594;-63
2022/07/30 02:07:56;;;;;;;21.77;20.02;;;;;;;24.08;100.00;-18392.47;5072945;28;20209;-63
2022/07/30 02:10:30;;;;;;;22.23;20.38;;;;;;;24.09;100.00;-18392.72;5072932;28;20634;-62
2022/07/30 02:13:01;;;;;;;20.75;19.25;;;;;;;24.17;100.00;-18394.50;5072351;28;20232;-63
2022/07/30 02:15:33;;;;;;;21.20;19.70;;;;;;;24.18;100.00;-18394.63;5072490;28;20199;-64
2022/07/30 02:18:03;;;;;;;20.45;19.08;;;;;;;24.15;100.00;-18394.03;5072439;28;20291;-62
2022/07/30 02:20:33;;;;;;;21.70;19.90;;;;;;;24.02;100.00;-18391.06;5072706;28;20209;-64
2022/07/30 02:23:05;;;;;;;21.88;20.40;;;;;;;24.18;100.00;-18394.72;5072674;28;20188;-63
2022/07/30 02:25:34;;;;;;;21.83;20.02;;;;;;;24.10;100.00;-18392.94;5072678;28;20627;-63
2022/07/30 02:28:10;;;;;;;20.70;19.23;;;;;;;24.10;100.00;-18392.84;5072515;28;20239;-64
2022/07/30 02:30:40;;;;;;;20.65;18.95;;;;;;;24.04;100.00;-18391.53;5072193;28;20177;-63
2022/07/30 02:33:11;;;;;;;22.15;20.23;;;;;;;23.86;100.00;-18387.13;5072541;28;20763;-63
2022/07/30 02:35:40;;;;;;;21.60;19.90;;;;;;;23.97;100.00;-18389.75;5072143;28;20192;-63
2022/07/30 02:38:09;;;;;;;21.00;19.52;;;;;;;23.82;100.00;-18386.31;5072359;28;20188;-63
2022/07/30 02:40:41;;;;;;;21.98;20.05;;;;;;;23.91;100.00;-18388.44;5072187;28;20266;-63
2022/07/30 02:43:11;;;;;;;20.73;18.92;;;;;;;23.92;100.00;-18388.56;5072266;28;20181;-63
2022/07/30 02:45:38;;;;;;;20.85;18.95;;;;;;;23.94;100.00;-18389.16;5072206;28;20643;-63
2022/07/30 02:48:07;;;;;;;19.25;17.85;;;;;;;23.87;100.00;-18387.38;5071838;28;20250;-62
2022/07/30 02:50:35;;;;;;;19.13;17.50;;;;;;;23.90;100.00;-18388.09;5072236;28;20181;-64
2022/07/30 02:53:05;;;;;;;19.83;18.13;;;;;;;23.94;100.00;-18389.16;5072174;28;20250;-64
2022/07/30 02:55:35;;;;;;;19.30;17.55;;;;;;;23.86;100.00;-18387.13;5071821;28;20275;-63
2022/07/30 02:58:04;;;;;;;19.23;17.80;;;;;;;23.88;100.00;-18387.72;5071761;28;20184;-63
2022/07/30 03:00:34;;;;;;;19.13;17.58;;;;;;;23.81;100.00;-18386.06;5071960;28;20212;-63
2022/07/30 03:03:06;;;;;;;18.95;17.38;;;;;;;23.94;100.00;-18389.16;5071904;28;20575;-63
2022/07/30 03:05:34;;;;;;;19.50;17.88;;;;;;;23.93;100.00;-18388.81;5071741;28;20185;-63
2022/07/30 03:08:02;;;;;;;20.90;17.60;;;;;;;23.88;100.00;-18387.72;5071372;28;20185;-63
2022/07/30 03:10:30;;;;;;;20.67;18.88;;;;;;;23.88;100.00;-18387.72;5071207;28;20234;-63
2022/07/30 03:12:59;;;;;;;19.88;18.08;;;;;;;23.85;100.00;-18386.91;5071534;28;20287;-63
2022/07/30 03:15:28;;;;;;;19.33;17.60;;;;;;;23.91;100.00;-18388.44;5071679;28;20184;-62
2022/07/30 03:17:58;;;;;;;19.15;17.67;;;;;;;23.85;100.00;-18386.91;5071582;28;20246;-63
2022/07/30 03:20:28;;;;;;;18.25;16.80;;;;;;;23.99;100.00;-18390.34;5071737;28;20306;-63
2022/07/30 03:22:58;;;;;;;16.38;15.13;;;;;;;24.05;100.00;-18391.66;5072086;28;20188;-62
2022/07/30 03:25:27;;;;;;;18.13;16.60;;;;;;;24.05;100.00;-18391.75;5071728;28;20723;-62
2022/07/30 03:27:56;;;;;;;18.02;16.83;;;;;;;24.33;100.00;-18398.16;5071700;28;20576;-63
2022/07/30 03:30:25;;;;;;;16.90;15.50;;;;;;;24.58;100.00;-18404.22;5071430;28;20199;-64
2022/07/30 03:32:53;;;;;;;17.75;16.13;;;;;;;25.11;100.00;-18416.53;5071337;28;20189;-63
2022/07/30 03:35:23;;;;;;;16.45;15.25;;;;;;;25.20;100.00;-18418.53;5071344;28;20275;-64
2022/07/30 03:37:51;;;;;;;15.77;14.90;;;;;;;24.97;100.00;-18413.31;5071205;28;20250;-63
2022/07/30 03:40:19;;;;;;;14.32;13.45;;;;;;;25.24;100.00;-18419.59;5071495;28;20705;-63
2022/07/30 03:42:47;;;;;;;15.30;14.10;;;;;;;25.30;100.00;-18421.03;5071130;28;20201;-62
2022/07/30 03:45:16;;;;;;;15.82;14.18;;;;;;;25.48;100.00;-18425.28;5071221;28;20185;-63
2022/07/30 03:47:45;;;;;;;14.18;13.27;;;;;;;25.38;100.00;-18420.88;5071237;28;20650;-63
2022/07/30 03:50:12;;;;;;;14.43;13.32;;;;;;;25.66;100.00;-18101.91;5071196;28;20185;-63
2022/07/30 03:52:41;;;;;;;14.07;13.25;;;;;;;26.06;100.00;-14200.22;5071210;28;20181;-63
2022/07/30 03:55:10;;;;;;;13.32;12.25;;;;;;;26.35;100.00;-8980.91;5071318;28;20722;-64
2022/07/30 03:57:37;;;;;;;12.30;11.60;;;;;;;26.52;100.00;-1128.22;5071461;28;20211;-63
2022/07/30 04:00:05;;;;;;;11.75;10.75;;;;;;;26.70;100.00;2151.53;5071389;28;20602;-63
2022/07/30 04:02:32;;;;;;;12.20;11.45;;;;;;;26.93;100.00;5765.66;5071081;28;20208;-63
2022/07/30 04:04:59;;;;;;;17.15;15.70;;;;;;;27.03;100.00;14980.97;5071250;28;20181;-63
2022/07/30 04:07:26;;;;;;;24.95;17.63;;;;;;;26.97;100.00;23557.03;5071029;28;20275;-63
2022/07/30 04:09:55;;;;;;;16.48;15.00;;;;;;;26.85;100.00;14316.69;5071238;28;20192;-63
2022/07/30 04:12:22;;;;;;;16.10;14.85;;;;;;;26.89;100.00;14317.81;5071074;28;20285;-64
2022/07/30 04:14:49;;;;;;;14.20;13.23;;;;;;;26.85;100.00;10366.84;5070926;28;20593;-63
2022/07/30 04:17:20;;;;;;;13.52;12.77;;;;;;;27.00;100.00;13003.66;5071265;28;20189;-63
2022/07/30 04:19:52;;;;;;;16.25;14.65;;;;;;;27.11;100.00;18610.38;5071339;28;20196;-63
2022/07/30 04:22:25;;;;;;;16.90;15.68;;;;;;;27.18;100.00;25879.94;5074974;28;20740;-64
2022/07/30 04:24:52;;;;;;;17.75;16.20;;;;;;;27.10;100.00;26206.81;5074650;28;20231;-63
2022/07/30 04:27:21;;;;;;;16.42;15.25;;;;;;;27.30;100.00;26546.94;5074848;28;20185;-64
2022/07/30 04:29:48;;;;;;;16.83;14.52;;;;;;;27.39;100.00;27875.25;5074763;28;20241;-64
2022/07/30 04:32:15;;;;;;;14.75;14.02;;;;;;;27.51;100.00;31856.38;5074595;28;20203;-63
2022/07/30 04:34:53;;;;;;;17.58;16.05;;;;;;;27.53;100.00;33515.22;5074414;28;20185;-63
2022/07/30 04:37:23;;;;;;;15.98;14.98;;;;;;;27.57;100.00;30865.22;5074752;28;20266;-63
2022/07/30 04:39:53;;;;;;;13.25;12.38;;;;;;;27.71;100.00;37508.66;5074613;28;20189;-65
2022/07/30 04:42:22;;;;;;;13.15;12.38;;;;;;;27.82;100.00;40839.31;5074259;28;20204;-63
2022/07/30 04:44:49;;;;;;;13.60;12.52;;;;;;;28.03;100.00;50847.56;5074821;28;20196;-63
2022/07/30 04:47:17;;;;;;;13.35;12.13;;;;;;;27.93;100.00;51171.91;5074313;28;20279;-63
2022/07/30 04:49:45;;;;;;;11.48;10.55;;;;;;;28.10;100.00;56864.56;5074475;28;20254;-63
2022/07/30 04:52:13;;;;;;;11.05;10.40;;;;;;;28.10;100.00;65565.19;5074161;28;20180;-64
2022/07/30 04:54:43;;;;;;;9.95;9.55;;;;;;;28.43;100.00;79375.63;5074363;28;20262;-63
2022/07/30 04:57:13;;;;;;;9.60;9.20;;;;;;;28.69;100.00;97304.31;5074424;28;20192;-63
2022/07/30 04:59:41;;;;;;;9.65;8.95;;;;;;;29.04;100.00;127294.03;5073971;28;20185;-63
2022/07/30 05:02:10;;;;;;;9.50;9.00;;;;;;;29.26;100.00;130075.75;5073900;28;20304;-64
2022/07/30 05:04:38;;;;;;;8.30;7.90;;;;;;;29.61;100.00;153492.13;5074352;28;20271;-64
2022/07/30 05:07:07;;;;;;;9.40;8.85;;;;;;;29.68;100.00;153511.34;5073886;28;20189;-63
2022/07/30 05:09:34;;;;;;;9.57;8.73;;;;;;;29.76;100.00;153530.56;5073774;28;20508;-64
2022/07/30 05:12:01;;;;;;;9.80;9.18;;;;;;;29.84;100.00;153551.03;5073794;28;20571;-63
2022/07/30 05:14:28;;;;;;;10.23;9.82;;;;;;;29.88;100.00;153561.34;5073936;28;20276;-64
2022/07/30 05:16:56;;;;;;;12.50;10.63;;;;;;;29.92;100.00;153572.88;5073681;28;20215;-64
2022/07/30 05:19:23;;;;;;;10.60;9.95;;;;;;;29.74;100.00;153525.44;5073922;28;20188;-64
2022/07/30 05:21:52;;;;;;;8.57;8.15;;;;;;;30.14;100.00;153626.69;5073513;28;20240;-64
2022/07/30 05:24:19;;;;;;;8.75;8.35;;;;;;;29.90;100.00;153567.78;5073576;28;20188;-63
2022/07/30 05:26:46;;;;;;;8.85;8.45;;;;;;;29.91;100.00;153570.34;5073774;28;20185;-63
2022/07/30 05:29:13;;;;;;;12.23;10.02;;;;;;;29.94;100.00;153576.75;5073440;28;20185;-63
2022/07/30 05:31:40;;;;;;;10.27;9.13;;;;;;;29.96;100.00;153581.84;5072761;28;20184;-64
2022/07/30 05:34:09;;;;;;;11.20;10.18;;;;;;;30.15;100.00;153629.28;5073388;28;20276;-63
2022/07/30 05:36:35;;;;;;;10.50;9.65;;;;;;;30.55;100.00;153730.59;5073423;28;20181;-63
2022/07/30 05:39:04;;;;;;;10.23;9.43;;;;;;;30.82;100.00;153801.09;5073627;28;20184;-64
2022/07/30 05:41:31;;;;;;;10.20;9.70;;;;;;;30.81;100.00;153797.22;5073185;28;20295;-64
2022/07/30 05:43:58;;;;;;;9.93;9.52;;;;;;;30.82;100.00;153799.78;5073558;28;20211;-63
2022/07/30 05:46:24;;;;;;;9.98;9.48;;;;;;;30.60;100.00;153743.38;5073606;28;20283;-63
2022/07/30 05:48:51;;;;;;;10.68;9.88;;;;;;;30.71;100.00;153771.59;5073333;28;20184;-64
2022/07/30 05:51:20;;;;;;;10.50;9.70;;;;;;;30.13;100.00;153624.19;5073345;28;20635;-64
2022/07/30 05:53:47;;;;;;;10.82;10.18;;;;;;;30.36;100.00;153684.38;5073339;28;20631;-63
2022/07/30 05:56:14;;;;;;;11.55;10.00;;;;;;;30.48;100.00;153713.91;5072931;28;20216;-63
2022/07/30 05:58:41;;;;;;;10.20;9.65;;;;;;;30.51;100.00;153720.34;5073081;28;20199;-64
2022/07/30 06:01:08;;;;;;;11.85;9.90;;;;;;;30.47;100.00;153711.34;5072826;28;20191;-63
2022/07/30 06:03:35;;;;;;;10.55;9.93;;;;;;;30.69;100.00;153767.75;5072952;28;20196;-64
2022/07/30 06:06:03;;;;;;;9.88;9.43;;;;;;;30.73;100.00;153776.72;5072741;28;20199;-63
2022/07/30 06:08:31;;;;;;;10.32;9.82;;;;;;;31.13;100.00;153879.34;5072739;28;20571;-63
2022/07/30 06:10:58;;;;;;;10.20;9.48;;;;;;;31.21;100.00;153899.88;5072660;28;20188;-64
2022/07/30 06:13:25;;;;;;;10.18;9.40;;;;;;;31.60;100.00;153997.41;5072574;28;20224;-63
2022/07/30 06:15:52;;;;;;;10.52;9.25;;;;;;;32.14;100.00;154135.97;5072809;28;20188;-64
2022/07/30 06:18:19;;;;;;;9.43;8.55;;;;;;;32.36;100.00;154191.16;5072859;28;20556;-64
2022/07/30 06:20:48;;;;;;;10.07;9.27;;;;;;;32.36;100.00;154191.16;5072407;28;20189;-64
2022/07/30 06:23:15;;;;;;;10.02;9.40;;;;;;;32.51;100.00;154228.34;5072580;28;20648;-63
2022/07/30 06:25:43;;;;;;;9.85;9.45;;;;;;;32.63;100.00;154259.25;5072496;28;20188;-63
2022/07/30 06:28:10;;;;;;;14.00;9.20;;;;;;;32.42;100.00;154205.31;5072249;28;20199;-63
2022/07/30 06:30:39;;;;;;;10.35;9.63;;;;;;;32.45;100.00;154214.28;5072339;28;20181;-63
2022/07/30 06:33:06;;;;;;;11.52;10.63;;;;;;;32.98;100.00;154347.78;5072495;28;20279;-64
2022/07/30 06:35:34;;;;;;;10.98;10.45;;;;;;;33.26;100.00;154418.47;5072119;28;20184;-63
2022/07/30 06:38:01;;;;;;;9.65;9.15;;;;;;;33.88;100.00;154577.72;5072213;28;20238;-63
2022/07/30 06:40:28;;;;;;;10.05;9.48;;;;;;;33.78;100.00;154550.78;5072910;28;20627;-63
2022/07/30 06:42:56;;;;;;;11.60;10.70;;;;;;;34.79;100.00;154807.78;5070481;28;20231;-63
2022/07/30 06:45:23;;;;;;;10.52;9.82;;;;;;;35.11;100.00;154888.72;5071434;28;20199;-63
2022/07/30 06:47:50;;;;;;;15.85;13.65;;;;;;;35.13;100.00;154893.91;5071859;28;20216;-64
2022/07/30 06:50:19;;;;;;;14.68;13.50;;;;;;;34.69;100.00;154782.06;5072241;28;20191;-64
2022/07/30 06:52:46;;;;;;;14.15;13.23;;;;;;;34.27;100.00;154675.41;5071893;28;20184;-64
2022/07/30 06:55:13;;;;;;;14.45;13.55;;;;;;;33.58;100.00;154499.31;5071921;28;20189;-63
2022/07/30 06:57:39;;;;;;;13.73;12.85;;;;;;;33.64;100.00;154514.75;5071701;28;20184;-63
2022/07/30 07:00:09;;;;;;;14.07;13.05;;;;;;;33.59;100.00;154503.19;5071680;28;20207;-63
2022/07/30 07:02:38;;;;;;;12.77;11.65;;;;;;;33.66;100.00;154521.22;5071980;28;20722;-64
2022/07/30 07:05:06;;;;;;;14.05;12.65;;;;;;;34.17;100.00;154649.69;5070512;28;20188;-63
2022/07/30 07:07:34;;;;;;;12.88;11.70;;;;;;;34.25;100.00;154671.53;5071644;28;20246;-63
2022/07/30 07:10:01;;;;;;;13.15;12.23;;;;;;;34.33;100.00;154690.84;5071726;28;20566;-63
2022/07/30 07:12:28;;;;;;;14.18;12.65;;;;;;;34.29;100.00;154681.81;5071612;28;20239;-64
2022/07/30 07:14:55;;;;;;;12.70;12.10;;;;;;;34.08;100.00;154627.81;5071935;28;20180;-64
2022/07/30 07:17:23;;;;;;;14.75;12.32;;;;;;;33.74;100.00;154541.75;5071551;28;20187;-63
2022/07/30 07:19:50;;;;;;;12.90;11.88;;;;;;;33.72;100.00;154535.34;5071501;28;20192;-63
2022/07/30 07:22:17;;;;;;;12.40;11.48;;;;;;;33.61;100.00;154508.31;5071818;28;20209;-63
2022/07/30 07:24:44;;;;;;;13.43;12.15;;;;;;;33.46;100.00;154469.81;5071555;28;20194;-64
2022/07/30 07:27:10;;;;;;;12.93;11.70;;;;;;;33.13;100.00;154385.03;5071849;28;20188;-64
2022/07/30 07:29:37;;;;;;;14.93;12.18;;;;;;;33.02;100.00;154359.34;5071737;28;20555;-63
2022/07/30 07:32:05;;;;;;;13.43;11.43;;;;;;;33.06;100.00;154369.59;5071395;28;20227;-63
2022/07/30 07:34:33;;;;;;;13.00;11.93;;;;;;;33.21;100.00;154405.59;5071590;28;20200;-63
2022/07/30 07:37:00;;;;;;;17.42;12.23;;;;;;;33.28;100.00;154423.56;5071268;28;20204;-64
2022/07/30 07:39:27;;;;;;;12.35;11.45;;;;;;;33.12;100.00;154382.44;5071619;28;20185;-64
2022/07/30 07:41:54;;;;;;;11.77;10.90;;;;;;;33.28;100.00;154424.84;5071202;28;20185;-64
2022/07/30 07:44:20;;;;;;;12.00;11.27;;;;;;;33.32;100.00;154433.84;5071805;28;20208;-63
2022/07/30 07:46:48;;;;;;;12.90;11.60;;;;;;;33.39;100.00;154451.84;5071606;28;20571;-64
2022/07/30 07:49:14;;;;;;;11.80;10.85;;;;;;;33.52;100.00;154485.25;5071600;28;20640;-63
2022/07/30 07:51:43;;;;;;;11.02;10.23;;;;;;;33.60;100.00;154505.78;5071242;28;20642;-63
2022/07/30 07:54:09;;;;;;;10.77;10.00;;;;;;;34.08;100.00;154626.50;5071233;28;20184;-63
2022/07/30 07:56:36;;;;;;;10.52;10.02;;;;;;;34.28;100.00;154677.97;5075078;28;20211;-63
2022/07/30 07:59:03;;;;;;;10.05;9.63;;;;;;;34.31;100.00;154685.69;5075491;28;20188;-62
2022/07/30 08:01:30;;;;;;;11.25;10.32;;;;;;;34.21;100.00;154661.25;5075672;28;20653;-63
2022/07/30 08:03:57;;;;;;;12.00;10.77;;;;;;;33.98;100.00;154602.16;5075285;28;20667;-63
2022/07/30 08:06:24;;;;;;;10.93;9.93;;;;;;;33.96;100.00;154598.28;5073799;28;20189;-64
2022/07/30 08:08:52;;;;;;;16.45;11.32;;;;;;;33.89;100.00;154580.31;5074901;28;20253;-63
2022/07/30 08:11:19;;;;;;;11.70;10.80;;;;;;;33.92;100.00;154586.72;5075289;28;20537;-63
2022/07/30 08:13:46;;;;;;;10.98;10.13;;;;;;;34.02;100.00;154611.13;5074776;28;20314;-63
2022/07/30 08:16:13;;;;;;;11.27;10.57;;;;;;;33.75;100.00;154544.31;5074825;28;20197;-63
2022/07/30 08:18:40;;;;;;;10.90;10.02;;;;;;;33.68;100.00;154526.38;5073964;28;20192;-63
2022/07/30 08:21:07;;;;;;;10.43;9.50;;;;;;;33.57;100.00;154496.78;5074966;28;20192;-62
2022/07/30 08:23:35;;;;;;;11.15;10.00;;;;;;;33.37;100.00;154446.69;5074501;28;20258;-63
2022/07/30 08:26:03;;;;;;;10.07;9.48;;;;;;;32.83;100.00;154309.28;5074825;28;20185;-64
2022/07/30 08:28:30;;;;;;;9.90;9.25;;;;;;;33.22;100.00;154408.19;5074582;28;20189;-63
2022/07/30 08:30:57;;;;;;;10.65;9.82;;;;;;;33.34;100.00;154439.00;5074845;28;20554;-63
2022/07/30 08:33:24;;;;;;;16.98;9.60;;;;;;;33.34;100.00;154439.00;5073271;28;20192;-64
2022/07/30 08:35:51;;;;;;;10.43;9.57;;;;;;;32.82;100.00;154308.00;5074496;28;20192;-63
2022/07/30 08:38:18;;;;;;;11.02;10.32;;;;;;;32.08;100.00;154120.56;5074414;28;20189;-64
2022/07/30 08:40:46;;;;;;;10.43;9.40;;;;;;;32.11;100.00;154128.31;5074733;28;20193;-62
2022/07/30 08:43:15;;;;;;;9.95;9.15;;;;;;;32.17;100.00;154143.69;5074640;28;20224;-63
2022/07/30 08:45:43;;;;;;;9.70;8.95;;;;;;;32.31;100.00;154178.31;5074598;28;20551;-63
2022/07/30 08:48:11;;;;;;;9.63;9.13;;;;;;;31.55;100.00;153985.84;5074289;28;20234;-63
2022/07/30 08:50:39;;;;;;;9.77;9.05;;;;;;;31.74;100.00;154034.56;5074236;28;20192;-63
2022/07/30 08:53:06;;;;;;;10.10;9.48;;;;;;;31.74;100.00;154034.56;5074176;28;20185;-63
2022/07/30 08:55:33;;;;;;;9.95;9.25;;;;;;;31.57;100.00;153989.72;5074241;28;20180;-63
2022/07/30 08:58:01;;;;;;;9.13;8.73;;;;;;;31.50;100.00;153971.69;5074082;28;20188;-63
2022/07/30 09:00:30;;;;;;;9.13;8.55;;;;;;;31.56;100.00;153988.44;5074355;28;20345;-63
2022/07/30 09:02:57;;;;;;;8.30;7.80;;;;;;;31.69;100.00;154020.50;5072804;28;20205;-63
2022/07/30 09:05:24;;;;;;;8.52;8.13;;;;;;;31.48;100.00;153966.56;5073991;28;20189;-63
2022/07/30 09:07:51;;;;;;;8.18;7.72;;;;;;;31.57;100.00;153990.94;5073042;28;20194;-63
2022/07/30 09:10:18;;;;;;;9.23;8.45;;;;;;;31.73;100.00;154030.75;5074137;28;20210;-63
2022/07/30 09:12:45;;;;;;;9.30;8.70;;;;;;;32.15;100.00;154138.56;5073639;28;20240;-63
2022/07/30 09:15:15;;;;;;;11.18;8.50;;;;;;;32.43;100.00;154209.13;5074016;28;20552;-64
2022/07/30 09:18:01;;;;;;;9.35;8.40;;;;;;;32.09;100.00;154121.84;5073985;28;20189;-63
2022/07/30 09:20:32;;;;;;;8.27;7.78;;;;;;;32.69;100.00;154274.63;5073486;28;20670;-63
2022/07/30 09:23:00;;;;;;;9.30;8.55;;;;;;;32.98;100.00;154347.78;5073578;28;20209;-63
2022/07/30 09:25:36;;;;;;;8.50;7.82;;;;;;;32.84;100.00;154311.88;5073578;28;20185;-64
2022/07/30 09:28:03;;;;;;;11.68;8.45;;;;;;;32.75;100.00;154288.75;5073763;28;20184;-63
2022/07/30 09:30:45;;;;;;;7.72;7.22;;;;;;;32.69;100.00;154273.34;5073469;28;20192;-64
2022/07/30 09:33:14;;;;;;;8.43;8.02;;;;;;;32.58;100.00;154246.34;5073459;28;20231;-63
2022/07/30 09:35:41;;;;;;;7.47;6.97;;;;;;;32.64;100.00;154261.78;5073630;28;20658;-63
2022/07/30 09:38:09;;;;;;;8.02;7.40;;;;;;;32.59;100.00;154250.16;5073642;28;20583;-63
2022/07/30 09:40:36;;;;;;;8.48;8.10;;;;;;;32.47;100.00;154219.38;5072249;28;20191;-64
2022/07/30 09:43:05;;;;;;;8.23;7.70;;;;;;;32.53;100.00;154234.81;5073523;28;20678;-63
2022/07/30 09:45:32;;;;;;;7.90;7.40;;;;;;;32.53;100.00;154234.81;5073178;28;20185;-63
2022/07/30 09:47:59;;;;;;;7.80;7.22;;;;;;;32.69;100.00;154274.63;5073242;28;20562;-64
2022/07/30 09:50:28;;;;;;;10.00;6.80;;;;;;;32.61;100.00;154255.38;5073581;28;20189;-63
2022/07/30 09:52:55;;;;;;;6.75;6.40;;;;;;;32.64;100.00;154261.78;5073455;28;20978;-63
2022/07/30 09:55:32;;;;;;;7.03;6.63;;;;;;;32.70;100.00;154277.19;5073376;28;20188;-63
2022/07/30 09:58:01;;;;;;;6.65;6.35;;;;;;;32.96;100.00;154343.97;5072887;28;20191;-62
2022/07/30 10:00:29;;;;;;;7.28;6.72;;;;;;;32.83;100.00;154310.56;5072983;28;20185;-63
2022/07/30 10:02:58;;;;;;;7.18;6.82;;;;;;;32.97;100.00;154345.25;5072689;28;20211;-63
2022/07/30 10:05:27;;;;;;;7.63;6.97;;;;;;;33.01;100.00;154356.81;5072725;28;20200;-63
2022/07/30 10:07:56;;;;;;;7.10;6.70;;;;;;;32.90;100.00;154328.53;5072638;28;20188;-63
2022/07/30 10:10:26;;;;;;;6.72;6.43;;;;;;;32.29;100.00;154171.94;5072706;28;20276;-63
2022/07/30 10:12:59;;;;;;;6.75;6.28;;;;;;;31.92;100.00;154078.19;5072381;28;20355;-64
2022/07/30 10:15:30;;;;;;;6.90;6.28;;;;;;;32.16;100.00;154139.84;5072605;28;20238;-63
2022/07/30 10:17:57;;;;;;;5.93;5.72;;;;;;;32.07;100.00;154118.00;5072592;28;20649;-63
2022/07/30 10:20:25;;;;;;;6.50;6.30;;;;;;;32.02;100.00;154105.16;5072502;28;20621;-63
2022/07/30 10:22:53;;;;;;;7.07;6.57;;;;;;;32.03;100.00;154107.72;5072320;28;20224;-64
2022/07/30 10:25:22;;;;;;;8.45;6.95;;;;;;;32.16;100.00;154141.16;5072441;28;20231;-64
2022/07/30 10:27:49;;;;;;;6.82;6.60;;;;;;;31.62;100.00;154002.50;5072271;28;20223;-64
2022/07/30 10:30:16;;;;;;;8.30;6.78;;;;;;;31.57;100.00;153990.94;5071302;28;20185;-63
2022/07/30 10:32:47;;;;;;;6.80;6.32;;;;;;;31.77;100.00;154039.72;5072296;28;20191;-65
2022/07/30 10:35:14;;;;;;;7.43;6.97;;;;;;;31.26;100.00;153912.72;5072503;28;20191;-64
2022/07/30 10:37:46;;;;;;;7.25;6.70;;;;;;;31.53;100.00;153980.66;5072569;28;20185;-64
2022/07/30 10:40:22;;;;;;;7.53;7.03;;;;;;;31.24;100.00;153906.25;5072556;28;20208;-64
2022/07/30 10:43:15;;;;;;;7.63;6.93;;;;;;;31.10;100.00;153870.41;5072042;28;20185;-63
2022/07/30 10:45:54;;;;;;;7.35;6.88;;;;;;;31.03;100.00;153853.69;5068952;28;20215;-63
2022/07/30 10:48:22;;;;;;;6.85;6.55;;;;;;;30.70;100.00;153769.03;5071961;28;20271;-64
2022/07/30 10:50:52;;;;;;;7.65;7.20;;;;;;;30.66;100.00;153758.78;5071979;28;20189;-63
2022/07/30 10:53:36;;;;;;;7.00;6.45;;;;;;;30.82;100.00;153799.78;5072041;28;20184;-63
2022/07/30 10:56:20;;;;;;;7.07;6.65;;;;;;;30.64;100.00;153753.69;5071753;28;20184;-63
2022/07/30 10:59:04;;;;;;;6.90;6.50;;;;;;;30.58;100.00;153738.28;5070676;28;20200;-63
2022/07/30 11:02:09;;;;;;;9.65;6.40;;;;;;;30.47;100.00;153711.34;5071986;28;20187;-63
2022/07/30 11:04:36;;;;;;;7.07;6.78;;;;;;;30.14;100.00;153626.69;5071648;28;20212;-63
2022/07/30 11:07:28;;;;;;;8.65;6.85;;;;;;;30.23;100.00;153651.06;5071704;28;20185;-63
2022/07/30 11:09:56;;;;;;;6.50;6.18;;;;;;;30.17;100.00;153635.66;5071935;28;20211;-63
2022/07/30 11:12:56;;;;;;;7.30;6.97;;;;;;;30.23;100.00;153651.06;5071720;28;20671;-63
2022/07/30 11:15:23;;;;;;;7.60;6.97;;;;;;;30.19;100.00;153639.53;5071617;28;20192;-63